WetterOnline ( https://www.wetteronline.de )

Wetter aktuell Leck

Aktuelles Wetter: Leck (17m)

6-stündlich | Neueste Meldungen
Ortszeit Temperatur Wetter
Di, 28.05. 14:00 15.8° C bedeckt
Di, 28.05. 8:00 11.3° C leichter Regen
Di, 28.05. 2:00 13.0° C leichter Regen
Mo, 27.05. 20:00 16.9° C fast wolkenlos
Mo, 27.05. 14:00 17.5° C wolkig
Mo, 27.05. 8:00 15.8° C bewölkt
Mo, 27.05. 2:00 14.5° C leichter Regen
So, 26.05. 20:00 19.8° C leicht bewölkt
Ortszeit Temperatur Wetter
Di, 28.05. 15:30 16.1° C bewölkt
Di, 28.05. 15:20 16.1° C bewölkt
Di, 28.05. 15:10 15.4° C wolkig
Di, 28.05. 15:00 15.9° C wolkig
Di, 28.05. 14:50 15.9° C wolkig
Di, 28.05. 14:40 15.9° C bewölkt
Di, 28.05. 14:30 15.0° C wolkig
Di, 28.05. 14:00 15.8° C bedeckt
Di, 28.05. 13:30 14.9° C bewölkt
Di, 28.05. 13:00 13.8° C bedeckt
Di, 28.05. 12:30 13.5° C bewölkt
Ortszeit Relative Feuchte Sichtweite
Di, 28.05. 14:00 65% 45 km
Di, 28.05. 8:00 90% 25 km
Di, 28.05. 2:00 89% 27 km
Mo, 27.05. 20:00 66% 45 km
Mo, 27.05. 14:00 71% 35 km
Mo, 27.05. 8:00 90% 22 km
Mo, 27.05. 2:00 96% 21 km
So, 26.05. 20:00 73% 35 km
Ortszeit Relative Feuchte Sichtweite
Di, 28.05. 15:30 67% 30 km
Di, 28.05. 15:20 67% -
Di, 28.05. 15:10 66% -
Di, 28.05. 15:00 62% 55 km
Di, 28.05. 14:50 62% -
Di, 28.05. 14:40 66% -
Di, 28.05. 14:30 65% 65 km
Di, 28.05. 14:00 65% 45 km
Di, 28.05. 13:30 73% 55 km
Di, 28.05. 13:00 85% 50 km
Di, 28.05. 12:30 80% 60 km
Ortszeit Niederschlagsmenge Niederschlagsart
Di, 28.05. 14:00 1 l/m2 in 6 Std. Regen
Di, 28.05. 8:00 8 l/m2 in 12 Std. Regen
Di, 28.05. 2:00 0.1 l/m2 in 6 Std. Regen
Mo, 27.05. 20:00 0.0 l/m2 in 12 Std. -
Mo, 27.05. 14:00 0.0 l/m2 in 6 Std. -
Mo, 27.05. 8:00 4 l/m2 in 12 Std. Regen
Mo, 27.05. 2:00 3 l/m2 in 6 Std. Regen
So, 26.05. 20:00 0.1 l/m2 in 12 Std. Regen
Ortszeit Niederschlagsmenge Niederschlagsart
Di, 28.05. 15:30 0.0 l/m2 in 30 Min -
Di, 28.05. 15:20 keine Meldung -
Di, 28.05. 15:10 keine Meldung -
Di, 28.05. 15:00 0.0 l/m2 in 1 Std. -
Di, 28.05. 14:50 keine Meldung -
Di, 28.05. 14:40 keine Meldung -
Di, 28.05. 14:30 0.0 l/m2 in 30 Min -
Di, 28.05. 14:00 0.0 l/m2 in 1 Std. Regen
Di, 28.05. 13:30 0.0 l/m2 in 30 Min -
Di, 28.05. 13:00 <0.05 l/m2 in 1 Std. Sprühregen
Di, 28.05. 12:30 <0.05 l/m2 in 30 Min Schnee
Ortszeit Stärke Spitze Richtung
km/h Bft. km/h Grad Sektor
Di, 28.05. 14:00 14 3 29 270° W
Di, 28.05. 8:00 11 2 20 310° NW
Di, 28.05. 2:00 7 2 14 330° NW
Mo, 27.05. 20:00 11 2 33 300° NW
Mo, 27.05. 14:00 25 4 36 240° SW
Mo, 27.05. 8:00 15 3 22 240° SW
Mo, 27.05. 2:00 13 3 44 80° O
So, 26.05. 20:00 22 4 32 120° SO
Ortszeit Stärke Spitze Richtung
km/h Bft. km/h Grad Sektor
Di, 28.05. 15:30 17 3 31 260° W
Di, 28.05. 15:20 17 3 - 260° W
Di, 28.05. 15:10 14 3 - 260° W
Di, 28.05. 15:00 18 3 29 260° W
Di, 28.05. 14:50 18 3 - 260° W
Di, 28.05. 14:40 17 3 - 260° W
Di, 28.05. 14:30 17 3 26 280° W
Di, 28.05. 14:00 14 3 22 270° W
Di, 28.05. 13:30 11 2 22 280° W
Di, 28.05. 13:00 11 2 19 240° SW
Di, 28.05. 12:30 11 2 18 280° W
Ortszeit Untergrenze Bedeckung Gattung
total tief tief mittel hoch
Di, 28.05. 14:00 780 m 8/8 8/8 - - -
Di, 28.05. 8:00 810 m 7/8 7/8 - - -
Di, 28.05. 2:00 2100 m 8/8 6/8 - - -
Mo, 27.05. 20:00 9000 m 1/8 0/8 - - -
Mo, 27.05. 14:00 3600 m 6/8 6/8 - - -
Mo, 27.05. 8:00 330 m 8/8 7/8 - - -
Mo, 27.05. 2:00 300 m 8/8 8/8 - - -
So, 26.05. 20:00 8100 m 6/8 0/8 - - -
Ortszeit Bedeckungsgrad in Achtel und Wolkenuntergrenze
Di, 28.05. 15:30 3(900m) 5(1110m) 7(1350m)
Di, 28.05. 15:20 3(900m) 5(1110m) 7(1350m)
Di, 28.05. 15:10 5
Di, 28.05. 15:00 3(1020m) 5(1260m) 6(1440m)
Di, 28.05. 14:50 3(1020m) 5(1260m) 6(1440m)
Di, 28.05. 14:40 7
Di, 28.05. 14:30 4(1050m) 6(1500m)
Di, 28.05. 14:00 4(780m) 7(1200m) 8(2100m)
Di, 28.05. 13:30 3(690m) 7(1110m) 8(3000m)
Di, 28.05. 13:00 1(600m) 7(1320m) 8(1500m)
Di, 28.05. 12:30 1(480m) 7(1050m)
Ortszeit Luftdruck NN (hPa) Tendenz (hPa in 3 Std.)
Di, 28.05. 14:00 1016 + 0,2
Di, 28.05. 8:00 1015 - 0,2
Di, 28.05. 2:00 1015 - 1,5
Mo, 27.05. 20:00 1016 - 0,3
Mo, 27.05. 14:00 1017 + 0,7
Mo, 27.05. 8:00 1015 + 1,1
Mo, 27.05. 2:00 1014 0,0
So, 26.05. 20:00 1015 - 0,9
Ortszeit Luftdruck NN (hPa) Tendenz (hPa in 3 Std.)
Di, 28.05. 15:30 1015 - 0,4
Di, 28.05. 15:20 1015 keine Meldung
Di, 28.05. 15:10 1016 keine Meldung
Di, 28.05. 15:00 1016 - 0,2
Di, 28.05. 14:50 1016 keine Meldung
Di, 28.05. 14:40 1016 keine Meldung
Di, 28.05. 14:30 1016 - 0,1
Di, 28.05. 14:00 1016 + 0,2
Di, 28.05. 13:30 1016 + 0,6
Di, 28.05. 13:00 1016 + 0,7
Di, 28.05. 12:30 1016 + 0,8
Ortszeit Schneehöhe (cm)
Di, 28.05. 14:00 0
Di, 28.05. 8:00 0
Di, 28.05. 2:00 0
Mo, 27.05. 20:00 0
Mo, 27.05. 14:00 0
Mo, 27.05. 8:00 0
Mo, 27.05. 2:00 0
So, 26.05. 20:00 0
Ortszeit Schneehöhe (cm)
Di, 28.05. 15:30 0
Di, 28.05. 15:20 0
Di, 28.05. 15:10 -
Di, 28.05. 15:00 0
Di, 28.05. 14:50 0
Di, 28.05. 14:40 -
Di, 28.05. 14:30 0
Di, 28.05. 14:00 0
Di, 28.05. 13:30 0
Di, 28.05. 13:00 0
Di, 28.05. 12:30 0
Link zu dieser Seite / Seite empfehlen

Das Wetter in ...